Time;durP1;ratioP1;P1;durP2;ratioP2;P2;SDS_P1;SDS_P2;PMS_P1;PMS_P2;Temp;Humidity;BMP_temperature;BMP_pressure;BME280_temperature;BME280_humidity;BME280_pressure;Samples;Min_cycle;Max_cycle;Signal;HPM_P1;HPM_P2
2023/02/26 00:01:00;;;;;;;16.67;5.68;;;410.20;1868.80;;;;;;4965318;28;20142;-83
2023/02/26 00:03:26;;;;;;;19.92;6.40;;;410.20;1868.80;;;;;;4957950;28;20058;-84
2023/02/26 00:05:52;;;;;;;14.65;6.13;;;410.10;1868.80;;;;;;4962399;28;20082;-84
2023/02/26 00:08:18;;;;;;;15.50;6.47;;;410.10;1868.80;;;;;;4979166;28;20023;-84
2023/02/26 00:10:43;;;;;;;22.30;11.18;;;410.00;1868.80;;;;;;4961640;28;20089;-84
2023/02/26 00:13:10;;;;;;;15.50;9.75;;;410.00;1868.80;;;;;;4961797;28;20030;-83
2023/02/26 00:15:36;;;;;;;18.02;8.50;;;410.00;1894.40;;;;;;4968586;28;20041;-83
2023/02/26 00:18:09;;;;;;;20.15;6.60;;;410.00;1894.40;;;;;;4996410;28;20026;-83
2023/02/26 00:20:35;;;;;;;;;;;409.90;1894.40;;;;;;4997052;28;20089;-83
2023/02/26 00:23:01;;;;;;;20.73;9.95;;;409.90;1920.00;;;;;;4997393;28;20355;-84
2023/02/26 00:25:26;;;;;;;19.77;9.68;;;409.80;1920.00;;;;;;4996774;28;20054;-84
2023/02/26 00:27:52;;;;;;;20.20;8.00;;;409.70;1920.00;;;;;;5000592;28;20030;-82
2023/02/26 00:30:19;;;;;;;18.48;9.48;;;409.70;1945.60;;;;;;4997758;28;20026;-85
2023/02/26 00:32:45;;;;;;;21.88;8.35;;;409.70;1945.60;;;;;;4996516;28;20031;-81
2023/02/26 00:35:14;;;;;;;21.23;6.95;;;409.60;1971.20;;;;;;4996731;28;20478;-83
2023/02/26 00:37:40;;;;;;;25.98;16.13;;;409.60;1971.20;;;;;;4997869;28;20501;-83
2023/02/26 00:40:24;;;;;;;14.23;7.85;;;409.60;1971.20;;;;;;4996674;28;20026;-83
2023/02/26 00:42:50;;;;;;;19.67;9.63;;;384.90;1971.20;;;;;;4996516;28;20496;-85
2023/02/26 00:45:16;;;;;;;20.65;8.43;;;384.90;1971.20;;;;;;4996224;28;20038;-81
2023/02/26 00:48:02;;;;;;;21.55;11.27;;;384.90;1996.80;;;;;;4997823;28;20375;-82
2023/02/26 00:50:28;;;;;;;16.00;8.93;;;384.70;1996.80;;;;;;4998210;28;20033;-83
2023/02/26 00:53:11;;;;;;;15.63;6.88;;;384.70;2022.40;;;;;;4987312;28;20064;-80
2023/02/26 00:55:37;;;;;;;;;;;384.60;2048.00;;;;;;4963924;28;20022;-80
2023/02/26 00:58:02;;;;;;;14.70;7.00;;;384.30;2048.00;;;;;;4976056;28;19972;-82
2023/02/26 01:00:28;;;;;;;15.73;6.85;;;384.60;2073.60;;;;;;4975174;28;20027;-81
2023/02/26 01:02:54;;;;;;;19.40;7.43;;;384.60;2073.60;;;;;;4975736;28;20033;-80
2023/02/26 01:05:21;;;;;;;19.50;6.57;;;384.60;2073.60;;;;;;4973894;28;20475;-81
2023/02/26 01:07:59;;;;;;;16.58;7.65;;;384.60;2048.00;;;;;;4979353;28;20033;-80
2023/02/26 01:10:25;;;;;;;15.20;7.07;;;384.60;2048.00;;;;;;4979196;28;20030;-81
2023/02/26 01:12:51;;;;;;;11.43;6.55;;;384.60;2073.60;;;;;;4980099;28;20034;-84
2023/02/26 01:15:18;;;;;;;13.60;7.65;;;384.60;2073.60;;;;;;4961043;28;20459;-81
2023/02/26 01:18:12;;;;;;;20.50;9.70;;;384.60;2073.60;;;;;;4959979;28;20027;-80
2023/02/26 01:20:45;;;;;;;28.30;10.10;;;384.50;2099.20;;;;;;4989122;28;20026;-80
2023/02/26 01:23:17;;;;;;;18.42;8.77;;;384.50;2073.60;;;;;;4996354;28;20041;-82
2023/02/26 01:25:50;;;;;;;20.50;10.63;;;384.50;2073.60;;;;;;4978698;28;20052;-79
2023/02/26 01:28:16;;;;;;;29.38;11.90;;;384.50;2073.60;;;;;;4996698;28;20258;-80
2023/02/26 01:30:42;;;;;;;22.40;10.50;;;384.50;2073.60;;;;;;4977359;28;20552;-80
2023/02/26 01:33:43;;;;;;;25.02;9.38;;;384.50;2073.60;;;;;;4977759;28;20096;-80
2023/02/26 01:36:22;;;;;;;17.13;9.38;;;384.50;2073.60;;;;;;4994770;28;20375;-80
2023/02/26 01:39:34;;;;;;;20.88;8.68;;;384.50;2073.60;;;;;;4978905;28;20026;-80
2023/02/26 01:42:20;;;;;;;24.52;8.38;;;384.50;2073.60;;;;;;4975560;28;20102;-82
2023/02/26 01:45:03;;;;;;;17.60;7.50;;;384.40;2099.20;;;;;;4989193;28;20022;-83
2023/02/26 01:47:50;;;;;;;18.55;8.73;;;384.40;2099.20;;;;;;4994540;28;20058;-82
2023/02/26 01:50:28;;;;;;;18.38;9.73;;;384.40;2099.20;;;;;;4978789;28;20117;-82
2023/02/26 01:53:18;;;;;;;21.08;10.02;;;384.30;2124.80;;;;;;4978525;28;20060;-81
2023/02/26 01:55:49;;;;;;;21.27;12.27;;;384.30;2124.80;;;;;;4993896;28;20034;-80
2023/02/26 01:58:16;;;;;;;20.30;9.65;;;384.30;2124.80;;;;;;4996157;28;20069;-81
2023/02/26 02:00:42;;;;;;;18.17;9.25;;;384.30;2124.80;;;;;;4978274;28;20592;-80
2023/02/26 02:03:08;;;;;;;27.90;14.38;;;384.20;2150.40;;;;;;4978525;28;20022;-80
2023/02/26 02:05:43;;;;;;;21.33;11.90;;;384.20;2150.40;;;;;;4978131;28;20140;-80
2023/02/26 02:08:11;;;;;;;21.50;9.82;;;384.00;2150.40;;;;;;4978139;28;20117;-79
2023/02/26 02:10:41;;;;;;;19.30;9.65;;;384.00;2150.40;;;;;;4978459;28;20474;-78
2023/02/26 02:13:36;;;;;;;16.45;7.68;;;384.00;2124.80;;;;;;4995841;28;20023;-78
2023/02/26 02:16:10;;;;;;;16.48;7.05;;;384.00;2124.80;;;;;;4977950;28;20026;-80
2023/02/26 02:19:03;;;;;;;20.48;8.45;;;384.00;2124.80;;;;;;4995751;28;20059;-80
2023/02/26 02:21:54;;;;;;;21.08;7.70;;;384.00;2099.20;;;;;;4978063;28;20045;-76
2023/02/26 02:24:31;;;;;;;15.60;6.07;;;384.10;2099.20;;;;;;4978124;28;20033;-78
2023/02/26 02:27:24;;;;;;;15.55;5.43;;;384.10;2073.60;;;;;;4977462;28;20026;-78
2023/02/26 02:30:05;;;;;;;14.60;4.07;;;384.30;2022.40;;;;;;4977693;28;20470;-79
2023/02/26 02:32:31;;;;;;;14.23;4.00;;;384.60;1945.60;;;;;;4977862;28;20097;-80
2023/02/26 02:35:07;;;;;;;14.77;4.10;;;384.90;1894.40;;;;;;4995471;28;20030;-80
2023/02/26 02:38:06;;;;;;;15.80;4.10;;;409.70;1920.00;;;;;;4977725;28;20466;-81
2023/02/26 02:40:36;;;;;;;13.35;3.50;;;409.80;1894.40;;;;;;4975613;28;20059;-80
2023/02/26 02:43:16;;;;;;;13.95;4.07;;;410.00;1894.40;;;;;;4994900;28;20030;-80
2023/02/26 02:45:58;;;;;;;15.43;3.83;;;410.00;1894.40;;;;;;4977626;28;20030;-79
2023/02/26 02:48:26;;;;;;;10.20;4.72;;;410.00;1868.80;;;;;;4977651;28;20113;-78
2023/02/26 02:51:00;;;;;;;13.00;5.10;;;410.00;1894.40;;;;;;4994956;28;20035;-80
2023/02/26 02:53:36;;;;;;;16.60;6.80;;;409.90;1920.00;;;;;;4995013;28;20474;-80
2023/02/26 02:56:24;;;;;;;17.45;5.13;;;409.80;1945.60;;;;;;4977813;28;20030;-78
2023/02/26 02:59:09;;;;;;;16.30;7.00;;;409.70;1945.60;;;;;;4995258;28;20513;-79
2023/02/26 03:01:37;;;;;;;13.25;4.70;;;409.70;1945.60;;;;;;4994552;28;20037;-79
2023/02/26 03:04:10;;;;;;;30.30;17.88;;;409.70;1945.60;;;;;;4976651;28;20501;-79
2023/02/26 03:06:36;;;;;;;11.02;5.00;;;409.70;1945.60;;;;;;4977494;28;20026;-78
2023/02/26 03:09:04;;;;;;;11.00;3.88;;;409.80;1920.00;;;;;;4994480;28;20057;-80
2023/02/26 03:11:31;;;;;;;11.07;4.15;;;409.80;1920.00;;;;;;4977062;28;20034;-79
2023/02/26 03:13:58;;;;;;;9.25;3.15;;;409.80;1945.60;;;;;;4994739;28;20370;-81
2023/02/26 03:16:32;;;;;;;11.90;5.30;;;409.80;1945.60;;;;;;4960534;28;20023;-79
2023/02/26 03:19:07;;;;;;;7.90;3.85;;;409.70;1945.60;;;;;;4956801;28;20386;-78
2023/02/26 03:21:46;;;;;;;13.18;4.63;;;409.70;1945.60;;;;;;4957220;28;20030;-79
2023/02/26 03:24:25;;;;;;;10.70;3.55;;;409.70;1945.60;;;;;;4973889;28;20097;-79
2023/02/26 03:27:36;;;;;;;13.35;2.90;;;409.70;1945.60;;;;;;4957984;28;20031;-79
2023/02/26 03:30:05;;;;;;;12.35;3.35;;;409.70;1945.60;;;;;;4929043;28;20471;-80
2023/02/26 03:32:58;;;;;;;9.10;2.70;;;409.70;1945.60;;;;;;4956701;28;20487;-78
2023/02/26 03:35:47;;;;;;;10.32;4.10;;;409.70;1945.60;;;;;;4956763;28;20463;-78
2023/02/26 03:38:22;;;;;;;7.50;3.30;;;409.70;1945.60;;;;;;4973881;28;20042;-80
2023/02/26 03:41:00;;;;;;;10.77;4.40;;;409.60;1971.20;;;;;;4974832;28;20114;-79
2023/02/26 03:43:36;;;;;;;8.15;3.10;;;409.60;1971.20;;;;;;4957700;28;20458;-82
2023/02/26 03:46:06;;;;;;;8.93;3.05;;;384.90;1945.60;;;;;;4957341;28;20130;-80
2023/02/26 03:48:35;;;;;;;13.15;4.55;;;384.90;1945.60;;;;;;4957545;28;20031;-81
2023/02/26 03:51:09;;;;;;;12.27;4.70;;;384.90;1945.60;;;;;;4957467;28;20035;-77
2023/02/26 03:53:57;;;;;;;10.88;3.05;;;384.90;1971.20;;;;;;4973104;28;20027;-80
2023/02/26 03:56:47;;;;;;;8.48;2.85;;;384.70;1971.20;;;;;;4972652;28;20483;-81
2023/02/26 03:59:14;;;;;;;10.60;3.25;;;384.70;1971.20;;;;;;4950628;28;20043;-79
2023/02/26 04:01:58;;;;;;;8.63;3.60;;;384.60;1971.20;;;;;;4973288;28;20031;-78
2023/02/26 04:04:30;;;;;;;9.70;3.05;;;384.70;1971.20;;;;;;4983884;28;20049;-78
2023/02/26 04:06:56;;;;;;;12.23;3.88;;;384.60;1996.80;;;;;;4993742;28;20031;-78
2023/02/26 04:09:22;;;;;;;12.80;3.95;;;384.60;1996.80;;;;;;4976704;28;20038;-77
2023/02/26 04:11:50;;;;;;;16.08;3.70;;;384.50;1996.80;;;;;;4976795;28;20058;-79
2023/02/26 04:14:15;;;;;;;11.25;4.80;;;384.50;1996.80;;;;;;4993434;28;20026;-79
2023/02/26 04:16:43;;;;;;;15.77;4.25;;;384.50;1996.80;;;;;;4976591;28;20114;-78
2023/02/26 04:19:09;;;;;;;13.25;3.42;;;384.40;1996.80;;;;;;4976519;28;20027;-77
2023/02/26 04:21:35;;;;;;;11.85;3.40;;;384.40;2022.40;;;;;;4976223;28;20037;-79
2023/02/26 04:24:00;;;;;;;12.95;4.28;;;384.40;2022.40;;;;;;4994172;28;20030;-79
2023/02/26 04:26:26;;;;;;;15.82;4.45;;;384.40;2022.40;;;;;;4976550;28;20049;-78
2023/02/26 04:28:52;;;;;;;15.48;4.65;;;384.40;2022.40;;;;;;4976304;28;20377;-77
2023/02/26 04:31:17;;;;;;;11.80;3.92;;;384.30;2022.40;;;;;;4975015;28;20044;-78
2023/02/26 04:33:43;;;;;;;13.68;5.20;;;384.30;2022.40;;;;;;4975628;28;20362;-79
2023/02/26 04:36:09;;;;;;;13.65;7.00;;;384.30;2048.00;;;;;;4975661;28;20026;-76
2023/02/26 04:38:35;;;;;;;16.38;6.07;;;384.20;2048.00;;;;;;4976369;28;20093;-76
2023/02/26 04:41:01;;;;;;;17.23;7.93;;;384.20;2048.00;;;;;;4993855;28;20042;-79
2023/02/26 04:43:27;;;;;;;14.73;6.53;;;384.10;2048.00;;;;;;4976092;28;20369;-79
2023/02/26 04:45:53;;;;;;;13.65;5.38;;;384.00;2073.60;;;;;;4993807;28;20033;-76
2023/02/26 04:48:19;;;;;;;18.33;6.50;;;384.00;2073.60;;;;;;4976112;28;20031;-79
2023/02/26 04:50:46;;;;;;;17.85;6.75;;;384.00;2073.60;;;;;;4976732;28;20026;-77
2023/02/26 04:53:12;;;;;;;18.73;7.47;;;384.00;2073.60;;;;;;4979850;28;20081;-78
2023/02/26 04:55:39;;;;;;;19.30;8.23;;;;;;;;;;4979633;28;20474;-79
2023/02/26 04:58:06;;;;;;;18.83;6.43;;;;;;;;;;4979835;28;20367;-79
2023/02/26 05:00:32;;;;;;;16.45;5.25;;;;;;;;;;4969677;28;20022;-78
2023/02/26 05:02:58;;;;;;;16.63;6.25;;;;;;;;;;4975583;28;20118;-80
2023/02/26 05:05:24;;;;;;;23.23;7.45;;;;;;;;;;4993356;28;20046;-76
2023/02/26 05:07:52;;;;;;;18.27;7.88;;;;;;;;;;4979161;28;20085;-80
2023/02/26 05:10:18;;;;;;;15.18;8.27;;;359.30;2099.20;;;;;;4996416;28;20470;-79
2023/02/26 05:12:44;;;;;;;20.73;10.40;;;359.20;2124.80;;;;;;4996589;28;20468;-77
2023/02/26 05:15:10;;;;;;;25.08;10.73;;;359.10;2124.80;;;;;;4996663;28;20097;-79
2023/02/26 05:17:36;;;;;;;28.13;12.80;;;359.10;2124.80;;;;;;4979073;28;20037;-78
2023/02/26 05:20:02;;;;;;;26.67;12.00;;;359.00;2124.80;;;;;;4995583;28;20034;-79
2023/02/26 05:22:28;;;;;;;17.35;9.63;;;358.90;2150.40;;;;;;4979244;28;20046;-77
2023/02/26 05:24:54;;;;;;;22.58;9.98;;;358.80;2150.40;;;;;;4996439;28;20034;-78
2023/02/26 05:27:19;;;;;;;32.67;10.57;;;358.70;2150.40;;;;;;4979202;28;20463;-77
2023/02/26 05:29:45;;;;;;;25.27;11.30;;;358.60;2176.00;;;;;;4979125;28;20035;-79
2023/02/26 05:32:11;;;;;;;34.00;16.50;;;358.60;2176.00;;;;;;4978718;28;20470;-78
2023/02/26 05:34:37;;;;;;;35.13;20.00;;;358.50;2201.60;;;;;;4978980;28;20451;-79
2023/02/26 05:37:03;;;;;;;30.63;16.55;;;358.40;2201.60;;;;;;4979350;28;20065;-78
2023/02/26 05:39:28;;;;;;;30.88;16.55;;;358.40;2201.60;;;;;;4996175;28;20050;-77
2023/02/26 05:41:55;;;;;;;26.92;15.55;;;333.70;2227.20;;;;;;4994949;28;20038;-80
2023/02/26 05:44:21;;;;;;;55.10;27.45;;;333.70;2227.20;;;;;;4995807;28;20030;-77
2023/02/26 05:46:47;;;;;;;70.45;38.35;;;333.60;2227.20;;;;;;4978727;28;20062;-80
2023/02/26 05:49:13;;;;;;;97.20;49.90;;;333.60;2227.20;;;;;;4978762;28;20061;-79
2023/02/26 05:51:38;;;;;;;78.65;44.15;;;333.70;2227.20;;;;;;4979714;28;20035;-79
2023/02/26 05:54:05;;;;;;;55.55;31.38;;;358.40;2201.60;;;;;;4996584;28;20026;-79
2023/02/26 05:56:31;;;;;;;42.25;24.30;;;358.40;2227.20;;;;;;4997224;28;20030;-80
2023/02/26 05:58:56;;;;;;;44.05;22.92;;;358.40;2201.60;;;;;;4997614;28;20121;-78
2023/02/26 06:01:22;;;;;;;35.60;18.40;;;358.40;2201.60;;;;;;5015406;28;20109;-76
2023/02/26 06:03:48;;;;;;;33.72;18.27;;;358.40;2201.60;;;;;;5015143;28;20477;-79
2023/02/26 06:06:17;;;;;;;27.30;14.15;;;358.40;2201.60;;;;;;4997745;28;20109;-78
2023/02/26 06:08:44;;;;;;;43.58;20.40;;;358.40;2201.60;;;;;;4997920;28;20026;-80
2023/02/26 06:11:10;;;;;;;34.50;17.95;;;358.50;2176.00;;;;;;5015443;28;20065;-78
2023/02/26 06:13:35;;;;;;;24.63;12.25;;;358.50;2150.40;;;;;;4997419;28;20062;-79
2023/02/26 06:16:01;;;;;;;18.52;10.77;;;358.60;2150.40;;;;;;4997754;28;20065;-78
2023/02/26 06:18:27;;;;;;;14.40;7.50;;;358.60;2150.40;;;;;;4997687;28;20456;-78
2023/02/26 06:20:52;;;;;;;19.35;9.30;;;358.70;2124.80;;;;;;4997316;28;20025;-80
2023/02/26 06:23:18;;;;;;;20.17;8.50;;;358.80;2150.40;;;;;;4997643;28;20021;-79
2023/02/26 06:25:44;;;;;;;20.85;8.50;;;358.80;2124.80;;;;;;4997473;28;20403;-78
2023/02/26 06:28:10;;;;;;;19.60;8.75;;;359.00;2124.80;;;;;;5014805;28;20444;-76
2023/02/26 06:30:36;;;;;;;17.98;8.93;;;359.00;2124.80;;;;;;4997798;28;20034;-79
2023/02/26 06:33:03;;;;;;;18.40;7.15;;;;;;;;;;4997398;28;20165;-77
2023/02/26 06:35:28;;;;;;;14.90;5.78;;;359.30;2099.20;;;;;;4997289;28;20112;-77
2023/02/26 06:37:55;;;;;;;18.60;6.15;;;359.20;2099.20;;;;;;4997387;28;20461;-78
2023/02/26 06:40:22;;;;;;;14.43;4.78;;;384.00;2073.60;;;;;;4997085;28;20030;-76
2023/02/26 06:42:47;;;;;;;15.55;5.53;;;384.10;2073.60;;;;;;4997258;28;20029;-80
2023/02/26 06:45:13;;;;;;;11.55;5.85;;;384.30;2048.00;;;;;;4997320;28;20080;-77
2023/02/26 06:47:39;;;;;;;23.13;5.55;;;384.50;2048.00;;;;;;4998752;28;20106;-79
2023/02/26 06:50:06;;;;;;;17.95;6.28;;;384.50;2022.40;;;;;;4997780;28;20026;-80
2023/02/26 06:52:32;;;;;;;16.73;6.70;;;384.60;2022.40;;;;;;4997942;28;20489;-79
2023/02/26 06:54:58;;;;;;;13.00;7.20;;;384.90;1996.80;;;;;;4997261;28;20026;-82
2023/02/26 06:57:24;;;;;;;12.50;5.82;;;;;;;;;;5019516;28;20040;-81
2023/02/26 06:59:50;;;;;;;11.93;6.47;;;409.60;2022.40;;;;;;5016031;28;20015;-80
2023/02/26 07:02:18;;;;;;;21.73;6.80;;;384.90;1996.80;;;;;;4984726;28;20478;-79
2023/02/26 07:04:44;;;;;;;16.25;6.95;;;409.70;1996.80;;;;;;4975772;28;20053;-80
2023/02/26 07:07:11;;;;;;;16.70;6.10;;;;;;;;;;4970318;28;20019;-78
2023/02/26 07:09:37;;;;;;;19.38;6.22;;;;;;;;;;4999937;28;20031;-81
2023/02/26 07:12:03;;;;;;;19.83;6.50;;;;;;;;;;4999405;28;20015;-82
2023/02/26 07:14:30;;;;;;;20.63;6.65;;;;;;;;;;4981678;28;20038;-79
2023/02/26 07:16:56;;;;;;;22.58;7.47;;;;;;;;;;4969540;28;20023;-80
2023/02/26 07:19:22;;;;;;;17.88;8.80;;;;;;;;;;4957813;28;20031;-79
2023/02/26 07:21:48;;;;;;;14.40;6.22;;;;;;;;;;4958023;28;20037;-77
2023/02/26 07:24:14;;;;;;;18.35;7.28;;;;;;;;;;4975329;28;20026;-82
2023/02/26 07:26:40;;;;;;;19.17;8.48;;;;;;;;;;4957878;28;20558;-81
2023/02/26 07:29:06;;;;;;;22.45;7.57;;;;;;;;;;4957119;28;20042;-81
2023/02/26 07:31:32;;;;;;;20.30;7.85;;;;;;;;;;4957936;28;20026;-81
2023/02/26 07:33:58;;;;;;;14.25;6.05;;;;;;;;;;4956929;28;20023;-80
2023/02/26 07:36:24;;;;;;;21.70;6.65;;;;;;;;;;4957396;28;20026;-82
2023/02/26 07:38:50;;;;;;;15.05;6.93;;;;;;;;;;4957687;28;20031;-80
2023/02/26 07:41:16;;;;;;;19.30;7.55;;;;;;;;;;4957226;28;20130;-81
2023/02/26 07:43:42;;;;;;;18.98;7.47;;;;;;;;;;4957518;28;20082;-77
2023/02/26 07:46:08;;;;;;;14.90;5.78;;;;;;;;;;4957645;28;20034;-78
2023/02/26 07:48:35;;;;;;;13.85;5.75;;;;;;;;;;4974577;28;20027;-81
2023/02/26 07:51:02;;;;;;;14.48;6.57;;;;;;;;;;4957615;28;20035;-79
2023/02/26 07:53:28;;;;;;;15.77;7.05;;;;;;;;;;4957659;28;20023;-78
2023/02/26 07:55:54;;;;;;;21.27;7.72;;;;;;;;;;4957193;28;20023;-79
2023/02/26 07:58:20;;;;;;;21.42;7.13;;;;;;;;;;4957302;28;20027;-78
2023/02/26 08:00:46;;;;;;;18.65;8.50;;;;;;;;;;4972596;28;20097;-79
2023/02/26 08:03:14;;;;;;;22.88;8.55;;;;;;;;;;4956942;28;20074;-78
2023/02/26 08:05:40;;;;;;;20.33;6.65;;;;;;;;;;4972252;28;20051;-81
2023/02/26 08:08:06;;;;;;;25.17;7.53;;;;;;;;;;4973177;28;20026;-81
2023/02/26 08:10:32;;;;;;;21.67;6.57;;;;;;;;;;4975410;28;20078;-80
2023/02/26 08:12:58;;;;;;;23.80;9.85;;;;;;;;;;4994053;28;20452;-83
2023/02/26 08:15:24;;;;;;;22.30;8.98;;;;;;;;;;5011059;28;20042;-82
2023/02/26 08:17:54;;;;;;;22.92;7.90;;;;;;;;;;4994643;28;20026;-82
2023/02/26 08:20:20;;;;;;;21.10;9.10;;;;;;;;;;5009342;28;20027;-81
2023/02/26 08:22:46;;;;;;;30.88;13.48;;;;;;;;;;4992688;28;20031;-81
2023/02/26 08:25:12;;;;;;;18.90;7.20;;;;;;;;;;4976454;28;20041;-79
2023/02/26 08:27:38;;;;;;;25.08;10.32;;;;;;;;;;4997925;28;20041;-78
2023/02/26 08:30:06;;;;;;;16.90;6.82;;;;;;;;;;4979904;28;20415;-79
2023/02/26 08:32:32;;;;;;;15.70;6.07;;;;;;;;;;4996378;28;20030;-79
2023/02/26 08:34:58;;;;;;;23.90;8.05;;;;;;;;;;5012597;28;20027;-81
2023/02/26 08:37:24;;;;;;;24.73;7.43;;;;;;;;;;5012342;28;20077;-79
2023/02/26 08:39:51;;;;;;;21.77;7.55;;;;;;;;;;5012209;28;20030;-79
2023/02/26 08:42:19;;;;;;;23.77;7.70;;;460.80;1868.80;;;;;;4996205;28;20106;-82
2023/02/26 08:44:45;;;;;;;23.00;6.43;;;;;;;;;;4979895;28;20026;-80
2023/02/26 08:47:11;;;;;;;23.50;6.00;;;;;;;;;;4997525;28;20457;-82
2023/02/26 08:49:37;;;;;;;18.33;6.68;;;460.90;1843.20;;;;;;4997556;28;20027;-81
2023/02/26 08:52:03;;;;;;;29.17;12.15;;;460.80;1843.20;;;;;;4978488;28;20459;-81
2023/02/26 08:54:29;;;;;;;26.35;8.95;;;460.80;1868.80;;;;;;4977886;28;20548;-80
2023/02/26 08:56:56;;;;;;;16.98;7.88;;;461.00;1868.80;;;;;;4996059;28;20030;-80
2023/02/26 08:59:23;;;;;;;26.38;9.10;;;460.90;1843.20;;;;;;4978651;28;20026;-79
2023/02/26 09:01:49;;;;;;;20.10;7.20;;;460.90;1843.20;;;;;;4997095;28;20039;-81
2023/02/26 09:04:14;;;;;;;19.30;6.57;;;461.00;1843.20;;;;;;4992054;28;20051;-81
2023/02/26 09:06:40;;;;;;;22.40;9.90;;;;;;;;;;4976621;28;20023;-81
2023/02/26 09:09:07;;;;;;;25.83;12.52;;;;;;;;;;4976187;28;20023;-79
2023/02/26 09:11:35;;;;;;;28.00;17.50;;;461.20;1843.20;;;;;;4995531;28;20470;-79
2023/02/26 09:14:02;;;;;;;27.55;16.17;;;;;;;;;;4979402;28;20026;-79
2023/02/26 09:16:28;;;;;;;20.05;11.82;;;435.70;1996.80;;;;;;4979427;28;20034;-80
2023/02/26 09:18:54;;;;;;;21.23;13.18;;;;;;;;;;4979028;28;20026;-80
2023/02/26 09:21:21;;;;;;;25.40;14.45;;;;;;;;;;4996725;28;20031;-77
2023/02/26 09:23:46;;;;;;;18.00;12.52;;;409.70;2124.80;;;;;;4979231;28;20029;-77
2023/02/26 09:26:12;;;;;;;26.73;16.02;;;409.60;2176.00;;;;;;4996350;28;20030;-77
2023/02/26 09:28:38;;;;;;;17.83;13.05;;;384.60;2124.80;;;;;;4979166;28;20026;-77
2023/02/26 09:31:05;;;;;;;18.42;12.57;;;384.40;2150.40;;;;;;4996400;28;20030;-82
2023/02/26 09:33:32;;;;;;;18.77;12.75;;;;;;;;;;4978502;28;20039;-81
2023/02/26 09:35:58;;;;;;;19.33;12.38;;;;;;;;;;4978928;28;20027;-77
2023/02/26 09:38:24;;;;;;;23.45;14.02;;;;;;;;;;4978743;28;20029;-84
2023/02/26 09:40:53;;;;;;;17.30;13.65;;;;;;;;;;4978684;28;20366;-83
2023/02/26 09:43:34;;;;;;;25.00;14.90;;;358.60;2227.20;;;;;;4977912;28;20023;-81
2023/02/26 09:46:05;;;;;;;24.15;15.20;;;;;;;;;;4994006;28;20027;-79
2023/02/26 09:48:34;;;;;;;22.85;15.07;;;;;;;;;;4978749;28;20029;-86
2023/02/26 09:51:00;;;;;;;22.25;15.48;;;;;;;;;;4978872;28;20081;-81
2023/02/26 09:53:30;;;;;;;20.63;13.43;;;;;;;;;;4994757;28;20027;-79
2023/02/26 09:56:00;;;;;;;27.75;15.70;;;;;;;;;;4988912;28;20106;-82
2023/02/26 09:58:26;;;;;;;20.65;13.13;;;;;;;;;;4983440;28;20379;-83
2023/02/26 10:01:06;;;;;;;22.70;13.93;;;;;;;;;;4992811;28;20493;-82
2023/02/26 10:03:38;;;;;;;29.42;17.80;;;;;;;;;;4994368;28;20164;-79
2023/02/26 10:06:10;;;;;;;27.80;16.17;;;;;;;;;;4976843;28;20107;-85
2023/02/26 10:08:41;;;;;;;37.17;19.55;;;;;;;;;;4976684;28;20125;-85
2023/02/26 10:11:07;;;;;;;31.75;19.25;;;;;;;;;;4974170;28;20084;-86
2023/02/26 10:13:36;;;;;;;20.85;15.48;;;;;;;;;;4976581;28;20019;-86
2023/02/26 10:16:07;;;;;;;20.80;12.98;;;;;;;;;;4987169;28;20037;-87
2023/02/26 10:18:36;;;;;;;18.60;12.32;;;;;;;;;;4995975;28;20026;-85
2023/02/26 10:21:19;;;;;;;17.92;12.48;;;333.30;2304.00;;;;;;4978409;28;20022;-86
2023/02/26 10:23:51;;;;;;;19.35;10.95;;;333.40;2304.00;;;;;;4978391;28;20052;-87
2023/02/26 10:26:29;;;;;;;14.88;10.15;;;333.10;2304.00;;;;;;4975301;28;20046;-88
2023/02/26 10:29:04;;;;;;;15.63;10.23;;;332.80;2304.00;;;;;;4952827;28;20089;-84
2023/02/26 10:31:40;;;;;;;17.50;9.50;;;308.10;2304.00;;;;;;4990900;28;20026;-83
2023/02/26 10:34:15;;;;;;;16.95;9.95;;;332.80;2329.60;;;;;;4995592;28;20058;-87
2023/02/26 10:36:51;;;;;;;12.30;7.68;;;332.90;2304.00;;;;;;4980281;28;20492;-86
2023/02/26 11:05:34;;;;;;;16.83;9.33;;;307.80;2278.40;;;;;;4850960;28;20277;-87
2023/02/26 11:08:04;;;;;;;12.30;7.47;;;308.10;2278.40;;;;;;4958534;28;20042;-86
2023/02/26 11:11:03;;;;;;;10.05;5.18;;;308.10;2252.80;;;;;;4958195;28;20059;-87
2023/02/26 11:13:32;;;;;;;9.52;6.22;;;308.10;2252.80;;;;;;4907434;28;20118;-87
2023/02/26 11:16:09;;;;;;;12.20;6.18;;;332.80;2278.40;;;;;;4958703;28;20031;-88
2023/02/26 11:18:35;;;;;;;18.42;10.43;;;308.00;2252.80;;;;;;4958210;28;20545;-86
2023/02/26 11:21:04;;;;;;;9.38;5.90;;;308.00;2252.80;;;;;;4958237;28;20031;-90
2023/02/26 11:23:32;;;;;;;9.75;4.95;;;307.60;2252.80;;;;;;4975682;28;20054;-88
2023/02/26 11:26:07;;;;;;;8.55;4.70;;;307.60;2252.80;;;;;;4958086;28;20027;-89
2023/02/26 11:28:42;;;;;;;9.60;5.43;;;;;;;;;;4958417;28;20038;-90
2023/02/26 11:31:10;;;;;;;7.82;5.00;;;;;;;;;;4958301;28;20050;-90
2023/02/26 11:33:43;;;;;;;8.00;4.65;;;307.20;2278.40;;;;;;4975266;28;20430;-89
2023/02/26 11:36:13;;;;;;;8.13;5.32;;;282.50;2252.80;;;;;;4958677;28;20031;-89
2023/02/26 11:38:40;;;;;;;12.65;5.38;;;;;;;;;;4957855;28;20045;-85
2023/02/26 11:41:06;;;;;;;8.10;5.05;;;282.50;2252.80;;;;;;4957849;28;20477;-85
2023/02/26 11:43:41;;;;;;;10.25;6.65;;;282.50;2278.40;;;;;;4957614;28;20027;-83
2023/02/26 11:46:07;;;;;;;9.95;6.03;;;307.40;2278.40;;;;;;4955646;28;20117;-84
2023/02/26 11:48:53;;;;;;;11.45;6.35;;;;;;;;;;4957592;28;20030;-83
2023/02/26 11:51:20;;;;;;;16.33;8.38;;;;;;;;;;4956279;28;20053;-85
2023/02/26 11:53:51;;;;;;;12.18;7.50;;;;;;;;;;4957668;28;20023;-82
2023/02/26 11:56:25;;;;;;;13.07;6.45;;;;;;;;;;4957663;28;20031;-86
2023/02/26 11:58:54;;;;;;;13.43;6.60;;;;;;;;;;4957309;28;20157;-84
2023/02/26 12:01:21;;;;;;;10.32;6.38;;;;;;;;;;4959994;28;20431;-87
2023/02/26 12:03:49;;;;;;;11.70;7.50;;;;;;;;;;4979800;28;20023;-84
2023/02/26 12:06:20;;;;;;;9.10;6.68;;;;;;;;;;4999539;28;20026;-86
2023/02/26 12:08:46;;;;;;;9.27;6.07;;;;;;;;;;5001022;28;20081;-85
2023/02/26 12:11:31;;;;;;;8.95;6.63;;;;;;;;;;5000585;28;20026;-85
2023/02/26 12:14:00;;;;;;;13.05;9.80;;;;;;;;;;4999861;28;20026;-83
2023/02/26 12:16:46;;;;;;;11.63;8.00;;;;;;;;;;5000206;28;20447;-83
2023/02/26 12:19:41;;;;;;;16.55;14.85;;;;;;;;;;5000296;28;20025;-83
2023/02/26 12:22:07;;;;;;;13.55;11.73;;;;;;;;;;4999837;28;20061;-82
2023/02/26 12:24:51;;;;;;;15.60;13.50;;;;;;;;;;5017522;28;20466;-84
2023/02/26 12:27:17;;;;;;;18.90;15.65;;;;;;;;;;4999964;28;20026;-85
2023/02/26 12:29:43;;;;;;;15.27;10.77;;;;;;;;;;5000928;28;20381;-82
2023/02/26 12:32:32;;;;;;;12.77;9.38;;;;;;;;;;5024920;28;20010;-84
2023/02/26 12:35:11;;;;;;;24.80;15.60;;;;;;;;;;5024448;28;20037;-85
2023/02/26 12:37:40;;;;;;;17.67;10.27;;;;;;;;;;5016200;28;20050;-85
2023/02/26 12:40:15;;;;;;;13.55;9.18;;;;;;;;;;5000365;28;20112;-80
2023/02/26 12:42:41;;;;;;;11.85;9.23;;;;;;;;;;5000059;28;20061;-85
2023/02/26 12:45:15;;;;;;;12.57;7.50;;;;;;;;;;5000053;28;20026;-84
2023/02/26 12:47:50;;;;;;;17.58;11.85;;;;;;;;;;5017250;28;20025;-84
2023/02/26 12:50:16;;;;;;;20.20;12.45;;;;;;;;;;4999558;28;20025;-82
2023/02/26 12:52:49;;;;;;;28.20;15.40;;;;;;;;;;4975743;28;20498;-88
2023/02/26 12:55:15;;;;;;;21.77;12.77;;;;;;;;;;4961775;29;20071;-87
2023/02/26 12:57:47;;;;;;;25.10;16.15;;;;;;;;;;4958689;29;20087;-86
2023/02/26 13:00:21;;;;;;;15.57;10.20;;;;;;;;;;4956514;28;20019;-87
2023/02/26 13:03:06;;;;;;;15.98;9.77;;;;;;;;;;4957216;29;20122;-84
2023/02/26 13:05:35;;;;;;;21.80;15.60;;;;;;;;;;4987608;28;20137;-86
2023/02/26 13:08:08;;;;;;;27.73;20.10;;;;;;;;;;4975779;28;20106;-84
2023/02/26 13:10:43;;;;;;;20.83;16.65;;;;;;;;;;4994048;28;20389;-84
2023/02/26 13:13:09;;;;;;;14.85;11.18;;;;;;;;;;4994848;28;20122;-84
2023/02/26 13:15:38;;;;;;;17.90;12.38;;;;;;;;;;4994783;28;20035;-87
2023/02/26 13:18:10;;;;;;;18.05;12.13;;;;;;;;;;4996301;28;20474;-87
2023/02/26 13:20:38;;;;;;;16.23;11.68;;;;;;;;;;4996486;28;20026;-85
2023/02/26 13:23:09;;;;;;;22.05;15.35;;;;;;;;;;4996599;28;20038;-87
2023/02/26 13:25:35;;;;;;;20.98;15.40;;;;;;;;;;4995893;28;20019;-85
2023/02/26 13:28:03;;;;;;;28.25;23.27;;;;;;;;;;4995747;28;20056;-84
2023/02/26 13:30:35;;;;;;;12.57;8.82;;;;;;;;;;4995619;28;20117;-84
2023/02/26 13:33:02;;;;;;;14.63;9.95;;;;;;;;;;4995607;28;20034;-90
2023/02/26 13:35:37;;;;;;;12.52;9.52;;;;;;;;;;4995066;28;20482;-83
2023/02/26 13:38:12;;;;;;;10.50;7.35;;;;;;;;;;4994932;28;20077;-81